New Albany, Ohio
Current Conditions -  °F | °C
As of 3:51 AM on Friday 19 Dec 2014 (Local Time) from KCMH Reporting Station
Overcast Overcast  
Wind Chill: 22°   Ceiling: 1800
Heat Index: 28°   Visibility: 10mi
Dew Point: 21°   Wind: 6mph
Humidity: 75%   Direction: 320°NW
Pressure: 30.22"   Gusts: NA
Location:  40.08°N, 82.81°W
Report Text: KCMH 190851Z 32005KT 10SM OVC018 M02/M06 A3022 RMK AO2 SLP242 T10221061 53001
Loading
Personal Weather Stations






























Interactive Weather Map New forecast layout! Learn more

10-Day Weather Forecast

Advertisements
Track Severe Weather on mobile